RJFR/KKJ METAR and TAF weather

Enter ICAO airport designator
Station Type Date Time Source
RJFR METAR 2019/04/18 22:00 UTC NOAA

RJFR 182200Z VRB01KT 9999 FEW020 17/11 Q1015


Station Type Date Time Source
RJFR Decoded METAR 2019/04/18 22:00 UTC NOAA

Kitakyushu Airport, Japan (RJFR) 33-50N 130-57E 6M
Apr 18, 2019 - 06:00 PM EDT / 2019.04.18 2200 UTC
Wind: Variable at 1 MPH (1 KT):0
Visibility: greater than 7 mile(s):0
Sky conditions: mostly clear
Temperature: 62 F (17 C)
Dew Point: 51 F (11 C)
Relative Humidity: 67%
Pressure (altimeter): 29.97 in. Hg (1015 hPa)
ob: RJFR 182200Z VRB01KT 9999 FEW020 17/11 Q1015
cycle: 22

Station Type Date Time Source
RJFR TAF 2019/04/18 18:00 UTC NOAA

TAF RJFR 181707Z 1818/2000 25004KT 9999 FEW030
BECMG 1822/1900 33007KT

Example: see airport list